Hauptseite
METAR-TAF:

METAR-TAF

Flughäfen :

Gafsa, Tunesien

Breite: 34-25N, Länge: 008-49E, Höhe: 313 m

Beobachtung

Neuester Wetterbericht von vor 39 Minuten, um 04:00 UTC
Wind 11 kt aus Ost/Nordost
Temperatur 16°C
Luftfeuchtigkeit 82%
Luftdruck 1016 hPa
Sichtweite: 8000 m

METAR: DTTF 260400Z 06011KT 8000 NSC 16/13 Q1016

Zeit: 05:39 (04:39 UTC)

Prognose

Neuester Wetterbericht von vor 1 Stunde und 39 Minuten, um 03:00 UTC
Gültige Prognose vom 26 um 04 UTC bis 26 um 13 UTC
Wind 10 kt aus Nordost
Sichtweite: 8000 m

TAF: DTTF 260300Z 2604/2613 05010KT 8000 NSC

Wetterbeobachtungen und Prognosen von mehr als 4000 Flughäfen (METAR und TAF Bericht).

Die verfügbaren Stationen werden durch gelbe und rote Markierungen auf der Karte dargestellt.

Führen Sie die Maus auf sie, um den Namen der Station zu sehen.

Darauf klicken, um die Beobachtung von Wetterbeobachtungen und Prognosen zu sehen.

Um die Karte zu ändern : klicken Sie auf den grünen Tasten mit einem schwarzen Kreuz Zum Vergrößern, auf den grünen Button mit einem Gedankenstrich zu verkleinern, oder auf die grünen Pfeile für benachbarte Karten.


METAR-TAF: